Weather History for KBJI - November, 2013

Change the Weather History Date:

Friday, November 1, 2013

  Actual Average Record
Temperature  
Mean Temperature 34 °F -  
Max Temperature 42 °F 43 °F 65 °F (1958)
Min Temperature 26 °F 26 °F -1 °F (1951)
Degree Days  
Heating Degree Days 31    
Moisture  
Dew Point 30 °F    
Average Humidity 86    
Maximum Humidity 99    
Minimum Humidity 67    
Precipitation  
Precipitation 0.00 in - - ()
Sea Level Pressure  
Sea Level Pressure 29.62 in    
Wind  
Wind Speed 8 mph (WNW)    
Max Wind Speed 24 mph    
Max Gust Speed 31 mph    
Visibility 7 miles    
Events      
Averages and records for this station are not official NWS values.
T = Trace of Precipitation, MM = Missing Value Source: NWS Daily Summary

Daily Weather History Graph

Daily Weather History Graph

Search for Another Location

Airport or City:

Trip Planner

Search our weather history database for the weather conditions in past years. The results will help you decide how hot, cold, wet, or windy it might be!

Date:

Astronomy

Nov. 01, 2013 Rise Set
Actual Time 8:03 AM CDT 6:01 PM CDT
Civil Twilight 7:31 AM CDT 6:34 PM CDT
Nautical Twilight 6:55 AM CDT 7:10 PM CDT
Astronomical Twilight 6:19 AM CDT 7:46 PM CDT
Moon 5:49 AM CDT (11/1) 5:00 PM CDT (11/1)
Length of Visible Light 11h 02m
Length of Day
9h 57m
Waning Crescent, 4% of the Moon is Illuminated
Nov 1
Waning Crescent
Nov 3
New
Nov 9
First Quarter
Nov 17
Full
Nov 25
Last Quarter

Hourly Weather History & Observations

Time (CDT) Temp. Windchill Dew Point Humidity Pressure Visibility Wind Dir Wind Speed Gust Speed Precip Events Conditions
12:12 AM 36.3 °F 30.1 °F 34.9 °F 95% 29.41 in 5.0 mi West 8.1 mph - N/A   Mostly Cloudy
12:32 AM 35.6 °F 29.2 °F 34.7 °F 97% 29.41 in 5.0 mi West 8.1 mph - N/A   Clear
12:52 AM 35.2 °F 28.8 °F 34.2 °F 96% 29.41 in 4.0 mi West 8.1 mph - N/A   Clear
1:12 AM 34.7 °F 28.1 °F 33.6 °F 96% 29.41 in 5.0 mi WNW 8.1 mph - N/A   Clear
1:32 AM 33.6 °F 26.2 °F 32.4 °F 95% 29.42 in 5.0 mi WNW 9.2 mph - N/A   Clear
1:52 AM 32.5 °F 25.5 °F 31.8 °F 97% 29.42 in 5.0 mi WNW 8.1 mph - N/A   Clear
2:12 AM 32.0 °F 24.8 °F 31.5 °F 98% 29.43 in 5.0 mi WNW 8.1 mph - N/A   Clear
2:32 AM 31.8 °F 25.4 °F 30.9 °F 96% 29.43 in 5.0 mi WNW 6.9 mph - N/A   Mostly Cloudy
2:52 AM 31.1 °F 24.5 °F 30.2 °F 96% 29.43 in 5.0 mi WNW 6.9 mph - N/A   Mostly Cloudy
3:12 AM 30.6 °F 23.8 °F 29.8 °F 97% 29.44 in 5.0 mi West 6.9 mph - N/A   Clear
3:32 AM 30.6 °F 23.8 °F 29.7 °F 96% 29.46 in 5.0 mi WNW 6.9 mph - N/A   Clear
3:51 AM 30.0 °F 23.2 °F 29.1 °F 96% 29.46 in 5.0 mi WNW 6.9 mph - N/A   Clear
4:12 AM 29.8 °F 23.9 °F 29.1 °F 97% 29.46 in 5.0 mi West 5.8 mph - N/A   Clear
4:32 AM 28.6 °F 23.5 °F 27.7 °F 96% 29.46 in 5.0 mi West 4.6 mph - N/A   Clear
4:51 AM 27.9 °F 22.6 °F 27.3 °F 98% 29.47 in 4.0 mi West 4.6 mph - N/A   Clear
5:12 AM 27.9 °F 21.5 °F 27.3 °F 98% 29.48 in 4.0 mi West 5.8 mph - N/A   Clear
5:32 AM 27.5 °F 21.1 °F 27.1 °F 99% 29.48 in 4.0 mi West 5.8 mph - N/A   Clear
5:51 AM 26.4 °F 20.9 °F 25.9 °F 98% 29.48 in 3.0 mi WNW 4.6 mph - N/A   Clear
6:12 AM 27.0 °F 21.6 °F 26.6 °F 99% 29.49 in 4.0 mi West 4.6 mph - N/A   Clear
6:32 AM 27.7 °F 22.4 °F 27.3 °F 99% 29.50 in 4.0 mi West 4.6 mph - N/A   Clear
6:51 AM 28.4 °F 22.2 °F 27.5 °F 96% 29.50 in 5.0 mi WNW 5.8 mph - N/A   Scattered Clouds
7:12 AM 27.3 °F 23.4 °F 26.6 °F 97% 29.51 in 5.0 mi WNW 3.5 mph - N/A   Clear
7:32 AM 27.3 °F 22.0 °F 26.6 °F 97% 29.51 in 5.0 mi West 4.6 mph - N/A   Clear
7:51 AM 27.0 °F 21.6 °F 26.2 °F 97% 29.52 in 3.0 mi West 4.6 mph - N/A   Scattered Clouds
8:12 AM 27.3 °F 22.0 °F 26.6 °F 97% 29.53 in 4.0 mi WNW 4.6 mph - N/A   Clear
8:32 AM 28.6 °F 22.4 °F 27.9 °F 97% 29.54 in 5.0 mi West 5.8 mph - N/A   Scattered Clouds
8:51 AM 29.3 °F 24.3 °F 28.4 °F 96% 29.55 in 4.0 mi WNW 4.6 mph - N/A   Mostly Cloudy
9:12 AM 30.2 °F 25.4 °F 29.3 °F 96% 29.56 in 5.0 mi WNW 4.6 mph - N/A   Overcast
9:32 AM 30.9 °F 25.2 °F 30.0 °F 96% 29.56 in 4.0 mi WNW 5.8 mph - N/A   Overcast
9:51 AM 31.1 °F 25.4 °F 30.2 °F 96% 29.57 in 4.0 mi WNW 5.8 mph - N/A   Overcast
10:12 AM 31.8 °F 27.3 °F 30.7 °F 96% 29.58 in 4.0 mi WNW 4.6 mph - N/A   Overcast
10:32 AM 32.5 °F 27.1 °F 31.8 °F 97% 29.58 in 5.0 mi West 5.8 mph - N/A   Overcast
10:51 AM 33.4 °F 28.1 °F 32.0 °F 94% 29.59 in 4.0 mi WNW 5.8 mph - N/A   Overcast
11:12 AM 34.3 °F 29.2 °F 32.0 °F 91% 29.60 in 5.0 mi NW 5.8 mph - N/A   Overcast
11:32 AM 35.6 °F 30.7 °F 32.9 °F 90% 29.60 in 7.0 mi NW 5.8 mph - N/A   Overcast
11:51 AM 37.2 °F 31.2 °F 33.8 °F 87% 29.61 in 7.0 mi WNW 8.1 mph - N/A   Overcast
12:12 PM 37.0 °F 31.6 °F 33.4 °F 87% 29.62 in 7.0 mi NW 6.9 mph - N/A   Overcast
12:32 PM 38.1 °F 31.2 °F 33.6 °F 84% 29.62 in 7.0 mi NW 10.4 mph - N/A   Overcast
12:52 PM 39.4 °F 33.2 °F 32.2 °F 75% 29.62 in 7.0 mi NNW 9.2 mph 16.1 mph N/A   Overcast
1:12 PM 40.1 °F 33.2 °F 32.4 °F 74% 29.63 in 10.0 mi NW 11.5 mph 17.3 mph N/A   Overcast
1:32 PM 41.0 °F 35.8 °F 31.8 °F 70% 29.63 in 10.0 mi NNW 8.1 mph - N/A   Overcast
1:51 PM 40.6 °F 34.3 °F 31.8 °F 71% 29.64 in 7.0 mi North 10.4 mph - N/A   Mostly Cloudy
2:12 PM 41.5 °F 34.2 °F 31.6 °F 68% 29.64 in 7.0 mi NW 13.8 mph - N/A   Mostly Cloudy
2:32 PM 41.5 °F 34.6 °F 31.6 °F 68% 29.66 in 7.0 mi NW 12.7 mph - N/A   Mostly Cloudy
2:51 PM 41.4 °F 35.7 °F 31.6 °F 68% 29.66 in 5.0 mi NNW 9.2 mph - N/A   Haze
3:12 PM 41.4 °F 34.7 °F 31.3 °F 67% 29.66 in 7.0 mi NNW 11.5 mph 18.4 mph N/A   Overcast
3:32 PM 41.0 °F 35.8 °F 31.5 °F 69% 29.67 in 10.0 mi NNW 8.1 mph 16.1 mph N/A   Overcast
3:51 PM 41.7 °F 36.1 °F 32.0 °F 68% 29.68 in 7.0 mi NW 9.2 mph - N/A   Overcast
4:12 PM 41.9 °F 35.4 °F 32.0 °F 68% 29.69 in 10.0 mi NW 11.5 mph 18.4 mph N/A   Overcast
4:32 PM 42.1 °F 36.6 °F 32.9 °F 70% 29.70 in 10.0 mi WNW 9.2 mph - N/A   Overcast
4:51 PM 41.9 °F 37.5 °F 33.1 °F 71% 29.71 in 7.0 mi WNW 6.9 mph - N/A   Overcast
5:12 PM 42.3 °F 38.6 °F 33.1 °F 70% 29.71 in 10.0 mi West 5.8 mph - N/A   Mostly Cloudy
5:32 PM 40.6 °F 36.7 °F 33.1 °F 74% 29.72 in 7.0 mi West 5.8 mph - N/A   Mostly Cloudy
5:51 PM 40.3 °F 36.3 °F 33.3 °F 76% 29.72 in 10.0 mi West 5.8 mph - N/A   Overcast
6:12 PM 41.9 °F 35.4 °F 32.9 °F 70% 29.73 in 10.0 mi WNW 11.5 mph - N/A   Overcast
6:32 PM 42.1 °F 34.9 °F 32.2 °F 68% 29.74 in 7.0 mi WNW 13.8 mph - N/A   Overcast
6:51 PM 41.5 °F 34.6 °F 32.0 °F 69% 29.75 in 7.0 mi NW 12.7 mph - N/A   Overcast
7:12 PM 40.5 °F 30.2 °F 30.9 °F 69% 29.77 in 10.0 mi NW 24.2 mph 31.1 mph N/A   Overcast
7:32 PM 37.0 °F 27.0 °F 29.8 °F 75% 29.79 in 10.0 mi NNW 18.4 mph 26.5 mph N/A   Scattered Clouds
7:51 PM 36.0 °F 29.0 °F 28.9 °F 76% 29.80 in 10.0 mi NNW 9.2 mph 18.4 mph N/A   Clear
8:12 PM 34.5 °F 27.9 °F 28.4 °F 78% 29.80 in 10.0 mi NW 8.1 mph - N/A   Clear
8:32 PM 32.0 °F 26.4 °F 27.1 °F 82% 29.80 in 10.0 mi NW 5.8 mph - N/A   Clear
8:52 PM 29.5 °F 24.5 °F 26.1 °F 87% 29.81 in 10.0 mi WNW 4.6 mph - N/A   Clear
9:12 PM 29.3 °F 23.2 °F 25.7 °F 86% 29.82 in 10.0 mi West 5.8 mph - N/A   Clear
9:32 PM 30.4 °F 23.6 °F 26.4 °F 85% 29.83 in 10.0 mi West 6.9 mph - N/A   Clear
9:51 PM 30.6 °F 23.1 °F 26.6 °F 85% 29.83 in 10.0 mi West 8.1 mph - N/A   Scattered Clouds
10:12 PM 31.1 °F 23.1 °F 27.5 °F 87% 29.84 in 7.0 mi WNW 9.2 mph - N/A   Scattered Clouds
10:32 PM 30.9 °F 22.2 °F 27.5 °F 87% 29.85 in 10.0 mi WNW 10.4 mph - N/A   Scattered Clouds
10:51 PM 31.6 °F 23.1 °F 27.9 °F 86% 29.85 in 7.0 mi NW 10.4 mph - N/A   Scattered Clouds
11:12 PM 31.1 °F 23.1 °F 27.5 °F 87% 29.85 in 7.0 mi NW 9.2 mph - N/A   Scattered Clouds
11:32 PM 29.8 °F 23.0 °F 26.6 °F 88% 29.86 in 10.0 mi NW 6.9 mph - N/A   Clear
11:51 PM 29.1 °F 23.0 °F 26.4 °F 90% 29.86 in 10.0 mi NW 5.8 mph - N/A   Clear